Time;durP1;ratioP1;P1;durP2;ratioP2;P2;SDS_P1;SDS_P2;PMS_P1;PMS_P2;Temp;Humidity;BMP_temperature;BMP_pressure;BME280_temperature;BME280_humidity;BME280_pressure;Samples;Min_cycle;Max_cycle;Signal;HPM_P1;HPM_P2
2022/07/07 00:00:00;;;;;;;0.7;0.7;;;;;;;20.2;100.0;101780;;;;
2022/07/07 00:01:00;;;;;;;0.7;0.7;;;;;;;20.1;100.0;101780;;;;
2022/07/07 00:02:00;;;;;;;0.7;0.7;;;;;;;20.1;100.0;101780;;;;
2022/07/07 00:03:00;;;;;;;0.7;0.7;;;;;;;20.3;100.0;101780;;;;
2022/07/07 00:04:01;;;;;;;0.7;0.7;;;;;;;20.3;100.0;101780;;;;
2022/07/07 00:05:00;;;;;;;0.2;0.2;;;;;;;20.2;100.0;101780;;;;
2022/07/07 00:06:00;;;;;;;0.2;0.2;;;;;;;20.2;100.0;101780;;;;
2022/07/07 00:07:00;;;;;;;0.2;0.2;;;;;;;20.3;100.0;101770;;;;
2022/07/07 00:08:00;;;;;;;0.2;0.2;;;;;;;20.3;100.0;101770;;;;
2022/07/07 00:09:00;;;;;;;0.2;0.2;;;;;;;20.4;100.0;101770;;;;
2022/07/07 00:10:00;;;;;;;0.2;0.2;;;;;;;20.4;100.0;101770;;;;
2022/07/07 00:11:00;;;;;;;0.2;0.2;;;;;;;20.3;100.0;101770;;;;
2022/07/07 00:12:00;;;;;;;0.2;0.2;;;;;;;20.3;100.0;101770;;;;
2022/07/07 00:13:00;;;;;;;0.2;0.2;;;;;;;20.3;100.0;101760;;;;
2022/07/07 00:14:00;;;;;;;0.2;0.2;;;;;;;20.3;100.0;101760;;;;
2022/07/07 00:15:00;;;;;;;0.2;0.2;;;;;;;20.3;100.0;101760;;;;
2022/07/07 00:16:01;;;;;;;0.2;0.2;;;;;;;20.3;100.0;101760;;;;
2022/07/07 00:17:00;;;;;;;0.2;0.2;;;;;;;20.2;100.0;101760;;;;
2022/07/07 00:18:00;;;;;;;0.2;0.2;;;;;;;20.2;100.0;101760;;;;
2022/07/07 00:19:01;;;;;;;0.2;0.2;;;;;;;20.2;100.0;101760;;;;
2022/07/07 00:20:00;;;;;;;0.2;0.2;;;;;;;20.2;100.0;101760;;;;
2022/07/07 00:21:00;;;;;;;0.2;0.2;;;;;;;20.3;100.0;101750;;;;
2022/07/07 00:22:00;;;;;;;0.2;0.2;;;;;;;20.3;100.0;101750;;;;
2022/07/07 00:23:00;;;;;;;0.2;0.2;;;;;;;20.2;100.0;101750;;;;
2022/07/07 00:24:00;;;;;;;0.2;0.2;;;;;;;20.2;100.0;101750;;;;
2022/07/07 00:25:00;;;;;;;0.1;0.1;;;;;;;20.2;100.0;101750;;;;
2022/07/07 00:26:00;;;;;;;0.1;0.1;;;;;;;20.2;100.0;101750;;;;
2022/07/07 00:27:00;;;;;;;0.1;0.1;;;;;;;20.2;100.0;101740;;;;
2022/07/07 00:28:00;;;;;;;0.1;0.1;;;;;;;20.2;100.0;101740;;;;
2022/07/07 00:29:00;;;;;;;0.1;0.1;;;;;;;20.2;100.0;101730;;;;
2022/07/07 00:30:00;;;;;;;0.1;0.1;;;;;;;20.2;100.0;101730;;;;
2022/07/07 00:31:00;;;;;;;0.1;0.1;;;;;;;20.1;100.0;101730;;;;
2022/07/07 00:32:00;;;;;;;0.1;0.1;;;;;;;20.1;100.0;101730;;;;
2022/07/07 00:33:00;;;;;;;0.1;0.1;;;;;;;20.1;100.0;101730;;;;
2022/07/07 00:34:00;;;;;;;0.1;0.1;;;;;;;20.1;100.0;101730;;;;
2022/07/07 00:35:00;;;;;;;0.1;0.1;;;;;;;20.2;100.0;101730;;;;
2022/07/07 00:36:00;;;;;;;0.1;0.1;;;;;;;20.2;100.0;101730;;;;
2022/07/07 00:37:01;;;;;;;0.1;0.1;;;;;;;20.2;100.0;101730;;;;
2022/07/07 00:38:00;;;;;;;0.1;0.1;;;;;;;20.2;100.0;101730;;;;
2022/07/07 00:39:00;;;;;;;0.1;0.1;;;;;;;20.1;100.0;101730;;;;
2022/07/07 00:40:00;;;;;;;0.1;0.1;;;;;;;20.1;100.0;101730;;;;
2022/07/07 00:41:00;;;;;;;0.1;0.1;;;;;;;20.0;100.0;101730;;;;
2022/07/07 00:42:00;;;;;;;0.1;0.1;;;;;;;20.0;100.0;101730;;;;
2022/07/07 00:43:00;;;;;;;0.1;0.1;;;;;;;20.1;100.0;101720;;;;
2022/07/07 00:44:00;;;;;;;0.1;0.1;;;;;;;20.1;100.0;101720;;;;
2022/07/07 00:45:00;;;;;;;0.3;0.3;;;;;;;20.3;100.0;101720;;;;
2022/07/07 00:46:01;;;;;;;0.3;0.3;;;;;;;20.3;100.0;101720;;;;
2022/07/07 00:47:00;;;;;;;0.3;0.3;;;;;;;20.2;100.0;101720;;;;
2022/07/07 00:48:00;;;;;;;0.3;0.3;;;;;;;20.2;100.0;101720;;;;
2022/07/07 00:49:00;;;;;;;0.3;0.3;;;;;;;20.1;100.0;101710;;;;
2022/07/07 00:50:00;;;;;;;0.3;0.3;;;;;;;20.1;100.0;101710;;;;
2022/07/07 00:51:00;;;;;;;0.3;0.3;;;;;;;20.0;100.0;101710;;;;
2022/07/07 00:52:00;;;;;;;0.3;0.3;;;;;;;20.0;100.0;101710;;;;
2022/07/07 00:53:00;;;;;;;0.3;0.3;;;;;;;20.0;100.0;101710;;;;
2022/07/07 00:54:00;;;;;;;0.3;0.3;;;;;;;20.0;100.0;101710;;;;
2022/07/07 00:55:02;;;;;;;0.3;0.3;;;;;;;20.0;100.0;101710;;;;
2022/07/07 00:56:00;;;;;;;0.3;0.3;;;;;;;20.0;100.0;101710;;;;
2022/07/07 00:57:10;;;;;;;0.3;0.3;;;;;;;19.9;100.0;101700;;;;
2022/07/07 00:58:00;;;;;;;0.3;0.3;;;;;;;19.9;100.0;101700;;;;
2022/07/07 00:59:02;;;;;;;0.3;0.3;;;;;;;19.9;100.0;101700;;;;
2022/07/07 01:00:04;;;;;;;0.3;0.3;;;;;;;20.0;100.0;101700;;;;
2022/07/07 01:01:01;;;;;;;0.3;0.3;;;;;;;20.0;100.0;101700;;;;
2022/07/07 01:02:01;;;;;;;0.3;0.3;;;;;;;20.0;100.0;101700;;;;
2022/07/07 01:03:00;;;;;;;0.3;0.3;;;;;;;20.0;100.0;101700;;;;
2022/07/07 01:04:00;;;;;;;0.3;0.3;;;;;;;20.0;100.0;101700;;;;
2022/07/07 01:05:07;;;;;;;0.3;0.3;;;;;;;19.9;100.0;101700;;;;
2022/07/07 01:06:02;;;;;;;0.3;0.3;;;;;;;19.9;100.0;101700;;;;
2022/07/07 01:07:01;;;;;;;0.3;0.3;;;;;;;19.9;100.0;101710;;;;
2022/07/07 01:08:02;;;;;;;0.3;0.3;;;;;;;19.9;100.0;101710;;;;
2022/07/07 01:09:00;;;;;;;0.3;0.3;;;;;;;19.8;100.0;101710;;;;
2022/07/07 01:10:01;;;;;;;0.3;0.3;;;;;;;19.8;100.0;101710;;;;
2022/07/07 01:11:00;;;;;;;0.3;0.3;;;;;;;19.9;100.0;101710;;;;
2022/07/07 01:12:00;;;;;;;0.3;0.3;;;;;;;19.9;100.0;101710;;;;
2022/07/07 01:13:02;;;;;;;0.3;0.3;;;;;;;19.9;100.0;101700;;;;
2022/07/07 01:14:00;;;;;;;0.3;0.3;;;;;;;19.9;100.0;101700;;;;
2022/07/07 01:15:00;;;;;;;0.3;0.3;;;;;;;19.8;100.0;101700;;;;
2022/07/07 01:16:00;;;;;;;0.3;0.3;;;;;;;19.8;100.0;101700;;;;
2022/07/07 01:17:00;;;;;;;0.3;0.3;;;;;;;19.8;100.0;101700;;;;
2022/07/07 01:18:00;;;;;;;0.3;0.3;;;;;;;19.8;100.0;101700;;;;
2022/07/07 01:19:00;;;;;;;0.3;0.3;;;;;;;19.8;100.0;101710;;;;
2022/07/07 01:20:01;;;;;;;0.3;0.3;;;;;;;19.8;100.0;101710;;;;
2022/07/07 01:21:02;;;;;;;0.3;0.3;;;;;;;19.8;100.0;101700;;;;
2022/07/07 01:22:03;;;;;;;0.3;0.3;;;;;;;19.7;100.0;101700;;;;
2022/07/07 01:23:00;;;;;;;0.3;0.3;;;;;;;19.7;100.0;101700;;;;
2022/07/07 01:24:00;;;;;;;0.3;0.3;;;;;;;19.7;100.0;101700;;;;
2022/07/07 01:25:00;;;;;;;0.3;0.3;;;;;;;19.8;100.0;101700;;;;
2022/07/07 01:26:00;;;;;;;0.3;0.3;;;;;;;19.8;100.0;101700;;;;
2022/07/07 01:27:04;;;;;;;0.3;0.3;;;;;;;19.8;100.0;101700;;;;
2022/07/07 01:28:00;;;;;;;0.3;0.3;;;;;;;19.8;100.0;101700;;;;
2022/07/07 01:29:00;;;;;;;0.3;0.3;;;;;;;19.8;100.0;101700;;;;
2022/07/07 01:30:00;;;;;;;0.3;0.3;;;;;;;19.8;100.0;101700;;;;
2022/07/07 01:31:00;;;;;;;0.3;0.3;;;;;;;19.8;100.0;101700;;;;
2022/07/07 01:32:00;;;;;;;0.3;0.3;;;;;;;19.8;100.0;101700;;;;
2022/07/07 01:33:00;;;;;;;0.3;0.3;;;;;;;19.8;100.0;101690;;;;
2022/07/07 01:34:00;;;;;;;0.3;0.3;;;;;;;19.8;100.0;101690;;;;
2022/07/07 01:35:00;;;;;;;0.3;0.3;;;;;;;19.9;100.0;101690;;;;
2022/07/07 01:36:00;;;;;;;0.3;0.3;;;;;;;19.9;100.0;101690;;;;
2022/07/07 01:37:00;;;;;;;0.3;0.3;;;;;;;19.9;100.0;101680;;;;
2022/07/07 01:38:00;;;;;;;0.3;0.3;;;;;;;19.9;100.0;101680;;;;
2022/07/07 01:39:00;;;;;;;0.3;0.3;;;;;;;19.8;100.0;101680;;;;
2022/07/07 01:40:00;;;;;;;0.3;0.3;;;;;;;19.8;100.0;101680;;;;
2022/07/07 01:41:00;;;;;;;0.3;0.3;;;;;;;19.7;100.0;101680;;;;
2022/07/07 01:42:00;;;;;;;0.3;0.3;;;;;;;19.7;100.0;101680;;;;
2022/07/07 01:43:00;;;;;;;0.3;0.3;;;;;;;19.6;100.0;101670;;;;
2022/07/07 01:44:00;;;;;;;0.3;0.3;;;;;;;19.6;100.0;101670;;;;
2022/07/07 01:45:00;;;;;;;0.2;0.2;;;;;;;19.7;100.0;101670;;;;
2022/07/07 01:46:00;;;;;;;0.2;0.2;;;;;;;19.7;100.0;101670;;;;
2022/07/07 01:47:00;;;;;;;0.2;0.2;;;;;;;19.7;100.0;101670;;;;
2022/07/07 01:48:00;;;;;;;0.2;0.2;;;;;;;19.7;100.0;101670;;;;
2022/07/07 01:49:00;;;;;;;0.2;0.2;;;;;;;19.8;100.0;101670;;;;
2022/07/07 01:50:00;;;;;;;0.2;0.2;;;;;;;19.8;100.0;101670;;;;
2022/07/07 01:51:00;;;;;;;0.2;0.2;;;;;;;19.8;100.0;101670;;;;
2022/07/07 01:52:00;;;;;;;0.2;0.2;;;;;;;19.8;100.0;101670;;;;
2022/07/07 01:53:00;;;;;;;0.2;0.2;;;;;;;19.8;100.0;101670;;;;
2022/07/07 01:54:00;;;;;;;0.2;0.2;;;;;;;19.8;100.0;101670;;;;
2022/07/07 01:55:00;;;;;;;0.2;0.2;;;;;;;19.7;100.0;101670;;;;
2022/07/07 01:56:03;;;;;;;0.2;0.2;;;;;;;19.6;100.0;101670;;;;
2022/07/07 01:57:00;;;;;;;0.2;0.2;;;;;;;19.6;100.0;101670;;;;
2022/07/07 01:58:00;;;;;;;0.2;0.2;;;;;;;19.6;100.0;101670;;;;
2022/07/07 01:59:00;;;;;;;0.2;0.2;;;;;;;19.6;100.0;101670;;;;
2022/07/07 02:00:00;;;;;;;0.2;0.2;;;;;;;19.6;100.0;101670;;;;
2022/07/07 02:01:00;;;;;;;0.2;0.2;;;;;;;19.7;100.0;101670;;;;
2022/07/07 02:02:00;;;;;;;0.2;0.2;;;;;;;19.7;100.0;101670;;;;
2022/07/07 02:03:00;;;;;;;0.2;0.2;;;;;;;19.8;100.0;101670;;;;
2022/07/07 02:04:00;;;;;;;0.5;0.5;;;;;;;19.8;100.0;101670;;;;
2022/07/07 02:05:00;;;;;;;0.5;0.5;;;;;;;19.8;100.0;101670;;;;
2022/07/07 02:06:00;;;;;;;0.5;0.5;;;;;;;19.8;100.0;101670;;;;
2022/07/07 02:07:00;;;;;;;0.5;0.5;;;;;;;19.7;100.0;101670;;;;
2022/07/07 02:08:00;;;;;;;0.5;0.5;;;;;;;19.7;100.0;101670;;;;
2022/07/07 02:09:00;;;;;;;0.5;0.5;;;;;;;19.7;100.0;101670;;;;
2022/07/07 02:10:00;;;;;;;0.5;0.5;;;;;;;19.7;100.0;101670;;;;
2022/07/07 02:12:00;;;;;;;0.5;0.5;;;;;;;19.7;100.0;101660;;;;
2022/07/07 02:13:00;;;;;;;0.5;0.5;;;;;;;19.6;100.0;101670;;;;
2022/07/07 02:14:01;;;;;;;0.5;0.5;;;;;;;19.6;100.0;101670;;;;
2022/07/07 02:15:00;;;;;;;0.5;0.5;;;;;;;19.7;100.0;101660;;;;
2022/07/07 02:16:00;;;;;;;0.5;0.5;;;;;;;19.7;100.0;101660;;;;
2022/07/07 02:17:00;;;;;;;0.5;0.5;;;;;;;19.8;100.0;101670;;;;
2022/07/07 02:18:00;;;;;;;0.5;0.5;;;;;;;19.8;100.0;101670;;;;
2022/07/07 02:19:00;;;;;;;0.5;0.5;;;;;;;19.8;100.0;101660;;;;
2022/07/07 02:20:00;;;;;;;0.5;0.5;;;;;;;19.8;100.0;101660;;;;
2022/07/07 02:21:00;;;;;;;0.5;0.5;;;;;;;19.9;100.0;101660;;;;
2022/07/07 02:22:00;;;;;;;0.5;0.5;;;;;;;19.9;100.0;101660;;;;
2022/07/07 02:23:00;;;;;;;0.5;0.5;;;;;;;19.8;100.0;101660;;;;
2022/07/07 02:24:00;;;;;;;0.3;0.3;;;;;;;19.8;100.0;101660;;;;
2022/07/07 02:25:00;;;;;;;0.3;0.3;;;;;;;19.8;100.0;101660;;;;
2022/07/07 02:26:00;;;;;;;0.3;0.3;;;;;;;19.8;100.0;101660;;;;
2022/07/07 02:27:00;;;;;;;0.3;0.3;;;;;;;19.8;100.0;101660;;;;
2022/07/07 02:28:00;;;;;;;0.3;0.3;;;;;;;19.8;100.0;101660;;;;
2022/07/07 02:29:00;;;;;;;0.3;0.3;;;;;;;19.9;100.0;101660;;;;
2022/07/07 02:30:00;;;;;;;0.3;0.3;;;;;;;19.9;100.0;101660;;;;
2022/07/07 02:31:00;;;;;;;0.3;0.3;;;;;;;19.8;100.0;101660;;;;
2022/07/07 02:32:00;;;;;;;0.3;0.3;;;;;;;19.8;100.0;101660;;;;
2022/07/07 02:33:00;;;;;;;0.3;0.3;;;;;;;19.8;100.0;101660;;;;
2022/07/07 02:34:00;;;;;;;0.3;0.3;;;;;;;19.8;100.0;101660;;;;
2022/07/07 02:35:01;;;;;;;0.3;0.3;;;;;;;19.8;100.0;101650;;;;
2022/07/07 02:36:00;;;;;;;0.3;0.3;;;;;;;19.8;100.0;101650;;;;
2022/07/07 02:37:00;;;;;;;0.3;0.3;;;;;;;19.8;100.0;101650;;;;
2022/07/07 02:38:00;;;;;;;0.3;0.3;;;;;;;19.8;100.0;101650;;;;
2022/07/07 02:39:00;;;;;;;0.3;0.3;;;;;;;19.9;100.0;101650;;;;
2022/07/07 02:40:00;;;;;;;0.3;0.3;;;;;;;19.9;100.0;101650;;;;
2022/07/07 02:41:01;;;;;;;0.3;0.3;;;;;;;19.9;100.0;101650;;;;
2022/07/07 02:42:00;;;;;;;0.3;0.3;;;;;;;19.9;100.0;101650;;;;
2022/07/07 02:43:00;;;;;;;0.3;0.3;;;;;;;19.8;100.0;101660;;;;
2022/07/07 02:44:00;;;;;;;0.2;0.2;;;;;;;19.8;100.0;101660;;;;
2022/07/07 02:45:00;;;;;;;0.2;0.2;;;;;;;19.8;100.0;101660;;;;
2022/07/07 02:46:00;;;;;;;0.2;0.2;;;;;;;19.8;100.0;101660;;;;
2022/07/07 02:47:00;;;;;;;0.2;0.2;;;;;;;19.8;100.0;101660;;;;
2022/07/07 02:48:00;;;;;;;0.2;0.2;;;;;;;19.8;100.0;101660;;;;
2022/07/07 02:49:00;;;;;;;0.2;0.2;;;;;;;19.6;100.0;101660;;;;
2022/07/07 02:50:00;;;;;;;0.2;0.2;;;;;;;19.6;100.0;101660;;;;
2022/07/07 02:51:00;;;;;;;0.2;0.2;;;;;;;19.6;100.0;101660;;;;
2022/07/07 02:52:00;;;;;;;0.2;0.2;;;;;;;19.6;100.0;101660;;;;
2022/07/07 02:53:00;;;;;;;0.2;0.2;;;;;;;19.6;100.0;101660;;;;
2022/07/07 02:54:00;;;;;;;0.2;0.2;;;;;;;19.6;100.0;101660;;;;
2022/07/07 02:55:00;;;;;;;0.2;0.2;;;;;;;19.7;100.0;101660;;;;
2022/07/07 02:56:00;;;;;;;0.2;0.2;;;;;;;19.7;100.0;101660;;;;
2022/07/07 02:57:00;;;;;;;0.2;0.2;;;;;;;19.6;100.0;101660;;;;
2022/07/07 02:58:00;;;;;;;0.2;0.2;;;;;;;19.6;100.0;101660;;;;
2022/07/07 02:59:00;;;;;;;0.2;0.2;;;;;;;19.6;100.0;101670;;;;
2022/07/07 03:00:00;;;;;;;0.2;0.2;;;;;;;19.6;100.0;101670;;;;
2022/07/07 03:01:00;;;;;;;0.2;0.2;;;;;;;19.6;100.0;101660;;;;
2022/07/07 03:02:00;;;;;;;0.2;0.2;;;;;;;19.6;100.0;101660;;;;
2022/07/07 03:03:01;;;;;;;0.2;0.2;;;;;;;19.7;100.0;101670;;;;
2022/07/07 03:04:00;;;;;;;0.1;0.1;;;;;;;19.7;100.0;101670;;;;
2022/07/07 03:05:00;;;;;;;0.1;0.1;;;;;;;19.6;100.0;101670;;;;
2022/07/07 03:06:00;;;;;;;0.1;0.1;;;;;;;19.6;100.0;101670;;;;
2022/07/07 03:07:00;;;;;;;0.1;0.1;;;;;;;19.6;100.0;101670;;;;
2022/07/07 03:08:00;;;;;;;0.1;0.1;;;;;;;19.6;100.0;101670;;;;
2022/07/07 03:09:00;;;;;;;0.1;0.1;;;;;;;19.5;100.0;101670;;;;
2022/07/07 03:10:00;;;;;;;0.1;0.1;;;;;;;19.5;100.0;101670;;;;
2022/07/07 03:11:00;;;;;;;0.1;0.1;;;;;;;19.5;100.0;101670;;;;
2022/07/07 03:12:00;;;;;;;0.1;0.1;;;;;;;19.5;100.0;101670;;;;
2022/07/07 03:13:00;;;;;;;0.1;0.1;;;;;;;19.4;100.0;101680;;;;
2022/07/07 03:14:00;;;;;;;0.1;0.1;;;;;;;19.4;100.0;101680;;;;
2022/07/07 03:15:00;;;;;;;0.1;0.1;;;;;;;19.4;100.0;101670;;;;
2022/07/07 03:16:00;;;;;;;0.1;0.1;;;;;;;19.4;100.0;101670;;;;
2022/07/07 03:17:00;;;;;;;0.1;0.1;;;;;;;19.5;100.0;101670;;;;
2022/07/07 03:18:00;;;;;;;0.1;0.1;;;;;;;19.5;100.0;101670;;;;
2022/07/07 03:19:00;;;;;;;0.1;0.1;;;;;;;19.4;100.0;101660;;;;
2022/07/07 03:20:00;;;;;;;0.1;0.1;;;;;;;19.4;100.0;101660;;;;
2022/07/07 03:21:00;;;;;;;0.1;0.1;;;;;;;19.2;100.0;101660;;;;
2022/07/07 03:22:00;;;;;;;0.1;0.1;;;;;;;19.2;100.0;101660;;;;
2022/07/07 03:23:00;;;;;;;0.1;0.1;;;;;;;19.3;100.0;101670;;;;
2022/07/07 03:24:00;;;;;;;0.2;0.2;;;;;;;19.3;100.0;101670;;;;
2022/07/07 03:25:00;;;;;;;0.2;0.2;;;;;;;19.1;100.0;101670;;;;
2022/07/07 03:26:00;;;;;;;0.2;0.2;;;;;;;19.1;100.0;101670;;;;
2022/07/07 03:27:00;;;;;;;0.2;0.2;;;;;;;19.2;100.0;101670;;;;
2022/07/07 03:28:00;;;;;;;0.2;0.2;;;;;;;19.2;100.0;101670;;;;
2022/07/07 03:29:00;;;;;;;0.2;0.2;;;;;;;19.2;100.0;101670;;;;
2022/07/07 03:30:00;;;;;;;0.2;0.2;;;;;;;19.2;100.0;101670;;;;
2022/07/07 03:31:00;;;;;;;0.2;0.2;;;;;;;18.8;100.0;101660;;;;
2022/07/07 03:32:00;;;;;;;0.2;0.2;;;;;;;18.8;100.0;101660;;;;
2022/07/07 03:33:00;;;;;;;0.2;0.2;;;;;;;18.9;100.0;101670;;;;
2022/07/07 03:34:00;;;;;;;0.2;0.2;;;;;;;18.9;100.0;101670;;;;
2022/07/07 03:35:00;;;;;;;0.2;0.2;;;;;;;18.9;100.0;101670;;;;
2022/07/07 03:36:00;;;;;;;0.2;0.2;;;;;;;18.9;100.0;101670;;;;
2022/07/07 03:37:00;;;;;;;0.2;0.2;;;;;;;18.9;100.0;101670;;;;
2022/07/07 03:38:00;;;;;;;0.2;0.2;;;;;;;18.9;100.0;101670;;;;
2022/07/07 03:39:00;;;;;;;0.2;0.2;;;;;;;18.9;100.0;101660;;;;
2022/07/07 03:40:00;;;;;;;0.2;0.2;;;;;;;18.9;100.0;101660;;;;
2022/07/07 03:41:03;;;;;;;0.2;0.2;;;;;;;18.9;100.0;101660;;;;
2022/07/07 03:42:00;;;;;;;0.2;0.2;;;;;;;18.9;100.0;101660;;;;
2022/07/07 03:43:00;;;;;;;0.2;0.2;;;;;;;19.0;100.0;101660;;;;
2022/07/07 03:44:00;;;;;;;0.3;0.3;;;;;;;19.0;100.0;101660;;;;
2022/07/07 03:45:00;;;;;;;0.3;0.3;;;;;;;19.0;100.0;101660;;;;
2022/07/07 03:46:00;;;;;;;0.3;0.3;;;;;;;19.0;100.0;101660;;;;
2022/07/07 03:47:00;;;;;;;0.3;0.3;;;;;;;19.0;100.0;101660;;;;
2022/07/07 03:48:00;;;;;;;0.3;0.3;;;;;;;19.0;100.0;101660;;;;
2022/07/07 03:49:00;;;;;;;0.3;0.3;;;;;;;18.9;100.0;101660;;;;
2022/07/07 03:50:00;;;;;;;0.3;0.3;;;;;;;18.9;100.0;101660;;;;
2022/07/07 03:51:00;;;;;;;0.3;0.3;;;;;;;18.9;100.0;101660;;;;
2022/07/07 03:52:00;;;;;;;0.3;0.3;;;;;;;18.9;100.0;101660;;;;
2022/07/07 03:53:00;;;;;;;0.3;0.3;;;;;;;19.0;100.0;101660;;;;
2022/07/07 03:54:00;;;;;;;0.3;0.3;;;;;;;19.0;100.0;101660;;;;
2022/07/07 03:55:00;;;;;;;0.3;0.3;;;;;;;18.9;100.0;101660;;;;
2022/07/07 03:56:00;;;;;;;0.3;0.3;;;;;;;18.9;100.0;101660;;;;
2022/07/07 03:57:00;;;;;;;0.3;0.3;;;;;;;18.8;100.0;101660;;;;
2022/07/07 03:58:00;;;;;;;0.3;0.3;;;;;;;18.8;100.0;101660;;;;
2022/07/07 03:59:00;;;;;;;0.3;0.3;;;;;;;18.9;100.0;101660;;;;
2022/07/07 04:00:00;;;;;;;0.3;0.3;;;;;;;18.9;100.0;101660;;;;
2022/07/07 04:01:00;;;;;;;0.3;0.3;;;;;;;18.9;100.0;101660;;;;
2022/07/07 04:02:00;;;;;;;0.3;0.3;;;;;;;18.9;100.0;101660;;;;
2022/07/07 04:03:00;;;;;;;0.3;0.3;;;;;;;18.9;100.0;101660;;;;
2022/07/07 04:04:07;;;;;;;0.2;0.2;;;;;;;18.8;100.0;101660;;;;
2022/07/07 04:05:00;;;;;;;0.2;0.2;;;;;;;18.8;100.0;101660;;;;
2022/07/07 04:06:00;;;;;;;0.2;0.2;;;;;;;18.8;100.0;101660;;;;
2022/07/07 04:07:00;;;;;;;0.2;0.2;;;;;;;18.7;100.0;101650;;;;
2022/07/07 04:08:00;;;;;;;0.2;0.2;;;;;;;18.7;100.0;101650;;;;
2022/07/07 04:09:00;;;;;;;0.2;0.2;;;;;;;18.7;100.0;101650;;;;
2022/07/07 04:10:01;;;;;;;0.2;0.2;;;;;;;18.7;100.0;101650;;;;
2022/07/07 04:11:00;;;;;;;0.2;0.2;;;;;;;18.6;100.0;101640;;;;
2022/07/07 04:12:00;;;;;;;0.2;0.2;;;;;;;18.6;100.0;101640;;;;
2022/07/07 04:13:00;;;;;;;0.2;0.2;;;;;;;18.5;100.0;101640;;;;
2022/07/07 04:14:01;;;;;;;0.2;0.2;;;;;;;18.5;100.0;101640;;;;
2022/07/07 04:15:00;;;;;;;0.2;0.2;;;;;;;18.6;100.0;101650;;;;
2022/07/07 04:16:00;;;;;;;0.2;0.2;;;;;;;18.6;100.0;101650;;;;
2022/07/07 04:17:00;;;;;;;0.2;0.2;;;;;;;18.6;100.0;101640;;;;
2022/07/07 04:18:00;;;;;;;0.2;0.2;;;;;;;18.6;100.0;101640;;;;
2022/07/07 04:19:00;;;;;;;0.2;0.2;;;;;;;18.6;100.0;101640;;;;
2022/07/07 04:20:01;;;;;;;0.2;0.2;;;;;;;18.6;100.0;101640;;;;
2022/07/07 04:21:00;;;;;;;0.2;0.2;;;;;;;18.5;100.0;101640;;;;
2022/07/07 04:22:00;;;;;;;0.2;0.2;;;;;;;18.5;100.0;101640;;;;
2022/07/07 04:23:06;;;;;;;0.2;0.2;;;;;;;18.6;100.0;101640;;;;
2022/07/07 04:24:00;;;;;;;0.3;0.3;;;;;;;18.6;100.0;101640;;;;
2022/07/07 04:25:00;;;;;;;0.3;0.3;;;;;;;18.7;100.0;101640;;;;
2022/07/07 04:26:00;;;;;;;0.3;0.3;;;;;;;18.7;100.0;101640;;;;
2022/07/07 04:27:00;;;;;;;0.3;0.3;;;;;;;18.6;100.0;101640;;;;
2022/07/07 04:28:00;;;;;;;0.3;0.3;;;;;;;18.6;100.0;101640;;;;
2022/07/07 04:29:00;;;;;;;0.3;0.3;;;;;;;18.7;100.0;101640;;;;
2022/07/07 04:30:00;;;;;;;0.3;0.3;;;;;;;18.7;100.0;101640;;;;
2022/07/07 04:31:00;;;;;;;0.3;0.3;;;;;;;18.8;100.0;101650;;;;
2022/07/07 04:32:00;;;;;;;0.3;0.3;;;;;;;18.8;100.0;101650;;;;
2022/07/07 04:33:00;;;;;;;0.3;0.3;;;;;;;18.4;100.0;101650;;;;
2022/07/07 04:34:00;;;;;;;0.3;0.3;;;;;;;18.4;100.0;101650;;;;
2022/07/07 04:35:00;;;;;;;0.3;0.3;;;;;;;18.5;100.0;101650;;;;
2022/07/07 04:36:00;;;;;;;0.3;0.3;;;;;;;18.5;100.0;101650;;;;
2022/07/07 04:37:00;;;;;;;0.3;0.3;;;;;;;18.4;100.0;101650;;;;
2022/07/07 04:38:00;;;;;;;0.3;0.3;;;;;;;18.4;100.0;101650;;;;
2022/07/07 04:39:00;;;;;;;0.3;0.3;;;;;;;18.3;100.0;101650;;;;
2022/07/07 04:40:00;;;;;;;0.3;0.3;;;;;;;18.3;100.0;101650;;;;
2022/07/07 04:41:00;;;;;;;0.3;0.3;;;;;;;18.2;100.0;101670;;;;
2022/07/07 04:42:00;;;;;;;0.3;0.3;;;;;;;18.2;100.0;101670;;;;
2022/07/07 04:43:01;;;;;;;0.3;0.3;;;;;;;18.1;100.0;101670;;;;
2022/07/07 04:44:00;;;;;;;0.6;0.6;;;;;;;18.1;100.0;101670;;;;
2022/07/07 04:45:00;;;;;;;0.6;0.6;;;;;;;18.2;100.0;101670;;;;
2022/07/07 04:46:00;;;;;;;0.6;0.6;;;;;;;18.2;100.0;101670;;;;
2022/07/07 04:47:00;;;;;;;0.6;0.6;;;;;;;18.2;100.0;101670;;;;
2022/07/07 04:48:00;;;;;;;0.6;0.6;;;;;;;18.2;100.0;101670;;;;
2022/07/07 04:49:00;;;;;;;0.6;0.6;;;;;;;18.3;100.0;101670;;;;
2022/07/07 04:50:00;;;;;;;0.6;0.6;;;;;;;18.3;100.0;101670;;;;
2022/07/07 04:51:00;;;;;;;0.6;0.6;;;;;;;18.3;100.0;101670;;;;
2022/07/07 04:52:00;;;;;;;0.6;0.6;;;;;;;18.3;100.0;101670;;;;
2022/07/07 04:53:00;;;;;;;0.6;0.6;;;;;;;18.3;100.0;101670;;;;
2022/07/07 04:54:00;;;;;;;0.6;0.6;;;;;;;18.3;100.0;101670;;;;
2022/07/07 04:55:00;;;;;;;0.6;0.6;;;;;;;18.2;100.0;101660;;;;
2022/07/07 04:56:00;;;;;;;0.6;0.6;;;;;;;18.2;100.0;101660;;;;
2022/07/07 04:57:00;;;;;;;0.6;0.6;;;;;;;18.1;100.0;101670;;;;
2022/07/07 04:58:00;;;;;;;0.6;0.6;;;;;;;18.1;100.0;101670;;;;
2022/07/07 04:59:00;;;;;;;0.6;0.6;;;;;;;18.3;100.0;101670;;;;
2022/07/07 05:00:00;;;;;;;0.6;0.6;;;;;;;18.3;100.0;101670;;;;
2022/07/07 05:01:01;;;;;;;0.6;0.6;;;;;;;18.3;100.0;101680;;;;
2022/07/07 05:02:00;;;;;;;0.6;0.6;;;;;;;18.3;100.0;101680;;;;
2022/07/07 05:03:00;;;;;;;0.6;0.6;;;;;;;18.4;100.0;101680;;;;
2022/07/07 05:04:00;;;;;;;0.6;0.6;;;;;;;18.4;100.0;101680;;;;
2022/07/07 05:05:00;;;;;;;0.6;0.6;;;;;;;18.4;100.0;101680;;;;
2022/07/07 05:06:00;;;;;;;0.6;0.6;;;;;;;18.4;100.0;101680;;;;
2022/07/07 05:07:00;;;;;;;0.6;0.6;;;;;;;18.5;100.0;101680;;;;
2022/07/07 05:08:00;;;;;;;0.6;0.6;;;;;;;18.5;100.0;101680;;;;
2022/07/07 05:09:00;;;;;;;0.6;0.6;;;;;;;18.4;100.0;101690;;;;
2022/07/07 05:10:00;;;;;;;0.6;0.6;;;;;;;18.4;100.0;101690;;;;
2022/07/07 05:11:00;;;;;;;0.6;0.6;;;;;;;18.5;100.0;101690;;;;
2022/07/07 05:12:00;;;;;;;0.6;0.6;;;;;;;18.5;100.0;101690;;;;
2022/07/07 05:13:00;;;;;;;0.6;0.6;;;;;;;18.4;100.0;101700;;;;
2022/07/07 05:14:00;;;;;;;0.6;0.6;;;;;;;18.4;100.0;101700;;;;
2022/07/07 05:15:00;;;;;;;0.6;0.6;;;;;;;18.3;100.0;101710;;;;
2022/07/07 05:16:00;;;;;;;0.6;0.6;;;;;;;18.3;100.0;101710;;;;
2022/07/07 05:17:00;;;;;;;0.6;0.6;;;;;;;18.2;100.0;101700;;;;
2022/07/07 05:18:00;;;;;;;0.6;0.6;;;;;;;18.2;100.0;101700;;;;
2022/07/07 05:19:00;;;;;;;0.6;0.6;;;;;;;18.3;100.0;101700;;;;
2022/07/07 05:20:00;;;;;;;0.6;0.6;;;;;;;18.3;100.0;101700;;;;
2022/07/07 05:21:00;;;;;;;0.6;0.6;;;;;;;18.4;100.0;101710;;;;
2022/07/07 05:22:00;;;;;;;0.6;0.6;;;;;;;18.4;100.0;101710;;;;
2022/07/07 05:23:00;;;;;;;0.6;0.6;;;;;;;18.4;100.0;101710;;;;
2022/07/07 05:24:00;;;;;;;0.2;0.2;;;;;;;18.4;100.0;101710;;;;
2022/07/07 05:25:00;;;;;;;0.2;0.2;;;;;;;18.2;100.0;101710;;;;
2022/07/07 05:26:00;;;;;;;0.2;0.2;;;;;;;18.2;100.0;101710;;;;
2022/07/07 05:27:00;;;;;;;0.2;0.2;;;;;;;18.3;100.0;101710;;;;
2022/07/07 05:28:00;;;;;;;0.2;0.2;;;;;;;18.3;100.0;101710;;;;
2022/07/07 05:29:00;;;;;;;0.2;0.2;;;;;;;18.1;100.0;101710;;;;
2022/07/07 05:30:00;;;;;;;0.2;0.2;;;;;;;18.1;100.0;101710;;;;
2022/07/07 05:31:02;;;;;;;0.2;0.2;;;;;;;18.4;100.0;101710;;;;
2022/07/07 05:32:00;;;;;;;0.2;0.2;;;;;;;18.4;100.0;101710;;;;
2022/07/07 05:33:00;;;;;;;0.2;0.2;;;;;;;18.4;100.0;101710;;;;
2022/07/07 05:34:00;;;;;;;0.2;0.2;;;;;;;18.4;100.0;101710;;;;
2022/07/07 05:35:00;;;;;;;0.2;0.2;;;;;;;18.5;100.0;101710;;;;
2022/07/07 05:36:02;;;;;;;0.2;0.2;;;;;;;18.5;100.0;101710;;;;
2022/07/07 05:37:00;;;;;;;0.2;0.2;;;;;;;18.5;100.0;101710;;;;
2022/07/07 05:38:00;;;;;;;0.2;0.2;;;;;;;18.5;100.0;101710;;;;
2022/07/07 05:39:00;;;;;;;0.2;0.2;;;;;;;18.7;100.0;101710;;;;
2022/07/07 05:40:00;;;;;;;0.2;0.2;;;;;;;18.7;100.0;101710;;;;
2022/07/07 05:41:00;;;;;;;0.2;0.2;;;;;;;18.6;100.0;101710;;;;
2022/07/07 05:42:00;;;;;;;0.2;0.2;;;;;;;18.6;100.0;101710;;;;
2022/07/07 05:43:00;;;;;;;0.2;0.2;;;;;;;18.6;100.0;101720;;;;
2022/07/07 05:44:00;;;;;;;0.2;0.2;;;;;;;18.6;100.0;101720;;;;
2022/07/07 05:45:00;;;;;;;0.2;0.2;;;;;;;18.5;100.0;101720;;;;
2022/07/07 05:46:00;;;;;;;0.2;0.2;;;;;;;18.5;100.0;101720;;;;
2022/07/07 05:47:00;;;;;;;0.2;0.2;;;;;;;18.6;100.0;101730;;;;
2022/07/07 05:48:08;;;;;;;0.2;0.2;;;;;;;18.6;100.0;101730;;;;
2022/07/07 05:49:00;;;;;;;0.2;0.2;;;;;;;18.6;100.0;101730;;;;
2022/07/07 05:50:00;;;;;;;0.2;0.2;;;;;;;18.6;100.0;101730;;;;
2022/07/07 05:51:00;;;;;;;0.2;0.2;;;;;;;18.7;100.0;101730;;;;
2022/07/07 05:52:00;;;;;;;0.2;0.2;;;;;;;18.7;100.0;101730;;;;
2022/07/07 05:53:00;;;;;;;0.2;0.2;;;;;;;18.5;100.0;101740;;;;
2022/07/07 05:54:00;;;;;;;0.2;0.2;;;;;;;18.5;100.0;101740;;;;
2022/07/07 05:55:00;;;;;;;0.2;0.2;;;;;;;18.5;100.0;101740;;;;
2022/07/07 05:56:00;;;;;;;0.2;0.2;;;;;;;18.5;100.0;101740;;;;
2022/07/07 05:57:00;;;;;;;0.2;0.2;;;;;;;18.5;100.0;101750;;;;
2022/07/07 05:58:00;;;;;;;0.2;0.2;;;;;;;18.5;100.0;101750;;;;
2022/07/07 05:59:00;;;;;;;0.2;0.2;;;;;;;18.5;100.0;101760;;;;
2022/07/07 06:00:00;;;;;;;0.2;0.2;;;;;;;18.5;100.0;101760;;;;
2022/07/07 06:01:00;;;;;;;0.2;0.2;;;;;;;18.4;100.0;101760;;;;
2022/07/07 06:02:00;;;;;;;0.2;0.2;;;;;;;18.4;100.0;101760;;;;
2022/07/07 06:03:00;;;;;;;0.2;0.2;;;;;;;18.3;100.0;101760;;;;
2022/07/07 06:04:00;;;;;;;0.6;0.6;;;;;;;18.3;100.0;101760;;;;
2022/07/07 06:05:00;;;;;;;0.6;0.6;;;;;;;18.3;100.0;101760;;;;
2022/07/07 06:06:00;;;;;;;0.6;0.6;;;;;;;18.3;100.0;101760;;;;
2022/07/07 06:07:02;;;;;;;0.6;0.6;;;;;;;18.3;100.0;101760;;;;
2022/07/07 06:08:00;;;;;;;0.6;0.6;;;;;;;18.3;100.0;101760;;;;
2022/07/07 06:09:00;;;;;;;0.6;0.6;;;;;;;18.1;100.0;101770;;;;
2022/07/07 06:12:00;;;;;;;0.6;0.6;;;;;;;18.0;100.0;101770;;;;
2022/07/07 06:13:00;;;;;;;0.6;0.6;;;;;;;18.2;100.0;101780;;;;
2022/07/07 06:14:00;;;;;;;0.6;0.6;;;;;;;18.2;100.0;101780;;;;
2022/07/07 06:15:00;;;;;;;0.6;0.6;;;;;;;18.3;100.0;101780;;;;
2022/07/07 06:16:00;;;;;;;0.6;0.6;;;;;;;18.3;100.0;101780;;;;
2022/07/07 06:17:00;;;;;;;0.6;0.6;;;;;;;18.2;100.0;101780;;;;
2022/07/07 06:18:10;;;;;;;0.6;0.6;;;;;;;18.4;100.0;101780;;;;
2022/07/07 06:19:00;;;;;;;0.6;0.6;;;;;;;18.4;100.0;101780;;;;
2022/07/07 06:20:00;;;;;;;0.6;0.6;;;;;;;18.4;100.0;101780;;;;
2022/07/07 06:21:00;;;;;;;0.6;0.6;;;;;;;18.5;100.0;101780;;;;
2022/07/07 06:22:00;;;;;;;0.6;0.6;;;;;;;18.5;100.0;101780;;;;
2022/07/07 06:23:00;;;;;;;0.6;0.6;;;;;;;18.5;100.0;101790;;;;
2022/07/07 06:24:00;;;;;;;0.4;0.4;;;;;;;18.5;100.0;101790;;;;
2022/07/07 06:25:00;;;;;;;0.4;0.4;;;;;;;18.4;100.0;101800;;;;